createdAt,value
2019-04-22T00:01:40.033Z,43.80
2019-04-22T00:04:16.257Z,43.70
2019-04-22T00:07:04.294Z,44.40
2019-04-22T00:09:39.974Z,44.70
2019-04-22T00:12:13.782Z,44.40
2019-04-22T00:14:38.693Z,44.60
2019-04-22T00:17:19.880Z,45.50
2019-04-22T00:19:55.530Z,45.40
2019-04-22T00:24:51.172Z,45.10
2019-04-22T00:27:29.462Z,45.60
2019-04-22T00:32:37.008Z,46.10
2019-04-22T00:35:07.248Z,45.90
2019-04-22T00:37:43.840Z,45.70
2019-04-22T00:40:14.356Z,45.80
2019-04-22T00:42:47.644Z,46.00
2019-04-22T00:45:19.086Z,46.30
2019-04-22T00:47:43.782Z,46.70
2019-04-22T00:52:59.833Z,46.70
2019-04-22T00:55:26.921Z,46.70
2019-04-22T00:57:58.083Z,46.70
2019-04-22T01:00:24.750Z,46.70
2019-04-22T01:03:07.484Z,46.50
2019-04-22T01:05:34.424Z,46.70
2019-04-22T01:08:09.110Z,46.80
2019-04-22T01:10:40.535Z,46.60
2019-04-22T01:13:08.138Z,46.60
2019-04-22T01:15:40.179Z,46.70
2019-04-22T01:18:09.341Z,47.00
2019-04-22T01:21:00.506Z,47.30
2019-04-22T01:23:14.744Z,47.70
2019-04-22T01:25:43.206Z,47.80
2019-04-22T01:28:09.514Z,47.80
2019-04-22T01:30:35.027Z,47.50
2019-04-22T01:33:06.816Z,47.50
2019-04-22T01:35:46.119Z,47.50
2019-04-22T01:38:22.345Z,47.30
2019-04-22T01:41:21.639Z,47.60
2019-04-22T01:43:56.283Z,47.80
2019-04-22T01:46:36.716Z,48.10
2019-04-22T01:49:10.057Z,48.40
2019-04-22T01:51:45.779Z,48.10
2019-04-22T01:54:15.089Z,48.40
2019-04-22T01:56:41.155Z,48.20
2019-04-22T01:59:07.400Z,48.20
2019-04-22T02:04:19.141Z,49.00
2019-04-22T02:06:49.603Z,49.50
2019-04-22T02:09:22.483Z,49.60
2019-04-22T02:12:11.581Z,49.50
2019-04-22T02:14:20.683Z,49.70
2019-04-22T02:16:56.149Z,49.90
2019-04-22T02:19:30.777Z,49.90
2019-04-22T02:21:54.140Z,50.00
2019-04-22T02:24:33.408Z,50.10
2019-04-22T02:27:09.183Z,49.70
2019-04-22T02:29:37.275Z,49.60
2019-04-22T02:32:19.362Z,49.90
2019-04-22T02:34:39.608Z,50.10
2019-04-22T02:37:13.073Z,50.10
2019-04-22T02:39:42.787Z,50.10
2019-04-22T02:44:46.709Z,50.60
2019-04-22T02:49:47.064Z,51.00
2019-04-22T02:52:26.172Z,51.00
2019-04-22T02:55:00.399Z,50.70
2019-04-22T02:57:30.173Z,50.70
2019-04-22T03:02:54.601Z,50.80
2019-04-22T03:05:07.490Z,50.80
2019-04-22T03:07:31.828Z,50.70
2019-04-22T03:10:12.257Z,50.70
2019-04-22T03:12:33.234Z,51.20
2019-04-22T03:14:59.914Z,51.30
2019-04-22T03:22:52.060Z,51.80
2019-04-22T03:25:43.845Z,51.60
2019-04-22T03:27:40.230Z,52.00
2019-04-22T03:30:47.625Z,51.90
2019-04-22T03:33:11.843Z,51.60
2019-04-22T03:37:56.238Z,51.90
2019-04-22T03:40:47.249Z,51.90
2019-04-22T03:43:14.276Z,51.70
2019-04-22T03:48:08.025Z,52.10
2019-04-22T03:53:15.017Z,52.10
2019-04-22T03:55:43.426Z,52.00
2019-04-22T03:58:10.573Z,52.10
2019-04-22T04:01:13.758Z,52.40
2019-04-22T04:05:54.114Z,52.90
2019-04-22T04:10:53.577Z,53.00
2019-04-22T04:13:30.458Z,52.90
2019-04-22T04:15:57.737Z,53.20
2019-04-22T04:18:39.239Z,53.30
2019-04-22T04:33:53.905Z,53.00
2019-04-22T04:36:32.584Z,53.30
2019-04-22T04:46:53.932Z,54.20
2019-04-22T04:49:09.336Z,54.40
2019-04-22T05:01:44.881Z,54.20
2019-04-22T05:06:51.291Z,54.00
2019-04-22T05:09:21.326Z,53.40
2019-04-22T05:16:54.617Z,50.80
2019-04-22T05:19:20.724Z,49.60
2019-04-22T05:21:53.312Z,48.40
2019-04-22T05:24:40.469Z,46.60
2019-04-22T05:27:02.115Z,45.50
2019-04-22T05:29:32.873Z,44.10
2019-04-22T05:31:57.036Z,42.80
2019-04-22T05:34:40.212Z,41.80
2019-04-22T05:37:05.290Z,40.90
2019-04-22T05:39:28.353Z,39.50
2019-04-22T05:42:03.103Z,38.80
2019-04-22T05:44:39.568Z,37.90
2019-04-22T05:47:08.437Z,36.70
2019-04-22T05:49:35.038Z,35.60
2019-04-22T05:52:09.665Z,34.90
2019-04-22T05:54:38.671Z,34.10
2019-04-22T05:57:19.301Z,33.20
2019-04-22T05:59:51.994Z,32.10
2019-04-22T06:04:54.936Z,30.80
2019-04-22T06:07:22.936Z,30.10
2019-04-22T06:10:03.046Z,29.70
2019-04-22T06:12:23.372Z,29.40
2019-04-22T06:15:01.119Z,28.90
2019-04-22T06:17:31.277Z,28.60
2019-04-22T06:20:07.568Z,28.10
2019-04-22T06:22:51.020Z,28.00
2019-04-22T06:25:17.799Z,27.70
2019-04-22T06:27:41.420Z,27.60
2019-04-22T06:30:12.731Z,27.20
2019-04-22T06:32:42.222Z,27.00
2019-04-22T06:35:23.594Z,26.70
2019-04-22T06:37:54.959Z,26.60
2019-04-22T06:40:19.823Z,25.70
2019-04-22T06:42:56.578Z,25.20
2019-04-22T06:45:19.271Z,25.10
2019-04-22T06:47:59.183Z,25.20
2019-04-22T06:50:24.498Z,24.60
2019-04-22T06:52:56.692Z,24.50
2019-04-22T06:55:32.994Z,23.90
2019-04-22T06:58:00.347Z,23.90
2019-04-22T07:00:32.427Z,23.80
2019-04-22T07:03:28.721Z,23.60
2019-04-22T07:08:18.277Z,23.30
2019-04-22T07:10:43.665Z,22.70
2019-04-22T07:13:11.268Z,22.80
2019-04-22T07:15:50.357Z,22.50
2019-04-22T07:18:18.036Z,22.80
2019-04-22T07:20:50.835Z,22.30
2019-04-22T07:23:25.841Z,22.30
2019-04-22T07:25:49.642Z,22.40
2019-04-22T07:28:20.277Z,22.40
2019-04-22T07:30:53.423Z,22.00
2019-04-22T07:36:32.158Z,21.20
2019-04-22T07:38:26.971Z,21.30
2019-04-22T07:40:56.316Z,21.10
2019-04-22T07:46:05.179Z,20.60
2019-04-22T07:48:43.302Z,20.40
2019-04-22T07:51:10.062Z,20.30
2019-04-22T07:53:33.808Z,20.30
2019-04-22T07:56:16.140Z,20.10
2019-04-22T07:58:42.091Z,20.10
2019-04-22T08:01:15.674Z,20.00
2019-04-22T08:03:58.704Z,20.00
2019-04-22T08:06:17.521Z,19.20
2019-04-22T08:08:58.410Z,18.50
2019-04-22T08:11:37.441Z,18.30
2019-04-22T08:13:46.653Z,19.00
2019-04-22T08:16:24.950Z,19.00
2019-04-22T08:19:00.269Z,19.00
2019-04-22T08:21:23.847Z,19.20
2019-04-22T08:24:01.356Z,19.10
2019-04-22T08:26:32.070Z,19.70
2019-04-22T08:29:05.636Z,19.60
2019-04-22T08:31:38.552Z,19.50
2019-04-22T08:34:08.291Z,19.40
2019-04-22T08:36:41.073Z,19.50
2019-04-22T08:39:14.984Z,19.70
2019-04-22T08:41:37.659Z,20.10
2019-04-22T08:44:07.641Z,19.70
2019-04-22T08:49:10.254Z,20.20
2019-04-22T08:51:42.905Z,20.40
2019-04-22T08:54:26.313Z,20.10
2019-04-22T08:56:55.535Z,19.90
2019-04-22T08:59:21.906Z,20.00
2019-04-22T09:02:00.527Z,20.30
2019-04-22T09:04:27.849Z,20.30
2019-04-22T09:09:34.028Z,21.20
2019-04-22T09:12:07.633Z,20.50
2019-04-22T09:14:38.168Z,20.60
2019-04-22T09:17:13.767Z,20.90
2019-04-22T09:19:38.775Z,21.00
2019-04-22T09:22:12.274Z,20.80
2019-04-22T09:24:40.801Z,20.90
2019-04-22T09:27:18.043Z,21.20
2019-04-22T09:29:44.442Z,21.00
2019-04-22T09:32:19.060Z,20.90
2019-04-22T09:35:03.356Z,20.70
2019-04-22T09:37:30.414Z,21.00
2019-04-22T09:40:02.987Z,21.40
2019-04-22T09:42:27.340Z,20.50
2019-04-22T09:44:55.576Z,20.40
2019-04-22T09:47:33.860Z,20.50
2019-04-22T09:50:18.545Z,20.60
2019-04-22T09:52:37.936Z,20.80
2019-04-22T09:55:07.837Z,20.90
2019-04-22T09:57:32.510Z,21.10
2019-04-22T10:00:10.933Z,21.60
2019-04-22T10:02:41.017Z,21.40
2019-04-22T10:05:11.528Z,21.80
2019-04-22T10:07:39.526Z,21.80
2019-04-22T10:10:15.117Z,22.40
2019-04-22T10:15:15.007Z,22.70
2019-04-22T10:17:54.935Z,23.20
2019-04-22T10:20:25.324Z,23.40
2019-04-22T10:22:52.765Z,23.70
2019-04-22T10:25:27.351Z,23.90
2019-04-22T10:28:01.811Z,23.90
2019-04-22T10:30:33.912Z,24.20
2019-04-22T10:32:59.421Z,24.30
2019-04-22T10:35:15.441Z,24.20
2019-04-22T10:37:42.777Z,24.20
2019-04-22T10:40:30.242Z,24.20
2019-04-22T10:43:01.257Z,24.30
2019-04-22T10:45:32.407Z,24.30
2019-04-22T10:48:03.980Z,24.30
2019-04-22T10:50:43.050Z,24.10
2019-04-22T10:53:15.438Z,24.20
2019-04-22T10:55:47.749Z,23.90
2019-04-22T10:58:18.417Z,23.90
2019-04-22T11:00:50.203Z,23.90
2019-04-22T11:03:20.618Z,23.90
2019-04-22T11:05:53.907Z,24.00
2019-04-22T11:08:31.604Z,24.00
2019-04-22T11:11:12.478Z,23.50
2019-04-22T11:13:28.298Z,23.80
2019-04-22T11:15:58.553Z,24.00
2019-04-22T11:18:29.646Z,24.10
2019-04-22T11:21:01.757Z,24.30
2019-04-22T11:23:32.392Z,23.60
2019-04-22T11:26:03.867Z,23.60
2019-04-22T11:28:33.922Z,23.40
2019-04-22T11:31:04.103Z,23.00
2019-04-22T11:33:34.537Z,22.10
2019-04-22T11:36:05.967Z,22.30
2019-04-22T11:38:37.693Z,22.50
2019-04-22T11:41:09.275Z,22.60
2019-04-22T11:43:39.257Z,22.40
2019-04-22T11:46:09.602Z,22.90
2019-04-22T11:48:51.993Z,22.50
2019-04-22T11:51:24.330Z,22.10
2019-04-22T11:53:54.821Z,22.10
2019-04-22T11:56:25.177Z,21.80
2019-04-22T11:58:55.259Z,21.90
2019-04-22T12:01:26.537Z,21.00
2019-04-22T12:03:58.045Z,21.40
2019-04-22T12:06:28.205Z,21.40
2019-04-22T12:08:59.483Z,21.60
2019-04-22T12:11:30.297Z,21.60
2019-04-22T12:14:00.328Z,21.60
2019-04-22T12:16:31.528Z,21.60
2019-04-22T12:19:03.123Z,21.40
2019-04-22T12:21:33.209Z,21.20
2019-04-22T12:24:03.444Z,21.50
2019-04-22T12:26:34.587Z,21.10
2019-04-22T12:29:07.066Z,21.20
2019-04-22T12:31:37.669Z,21.30
2019-04-22T12:34:07.925Z,21.50
2019-04-22T12:36:38.476Z,21.40
2019-04-22T12:39:09.788Z,21.70
2019-04-22T12:41:40.193Z,21.50
2019-04-22T12:44:11.710Z,22.10
2019-04-22T12:46:42.067Z,21.80
2019-04-22T12:49:12.359Z,21.80
2019-04-22T12:51:42.935Z,21.80
2019-04-22T12:54:13.108Z,21.80
2019-04-22T12:56:44.105Z,22.00
2019-04-22T12:59:14.071Z,21.00
2019-04-22T13:01:44.681Z,20.60
2019-04-22T13:04:17.660Z,20.80
2019-04-22T13:06:48.055Z,20.90
2019-04-22T13:09:19.487Z,21.60
2019-04-22T13:11:51.033Z,21.10
2019-04-22T13:14:21.286Z,21.40
2019-04-22T13:16:51.272Z,21.40
2019-04-22T13:19:24.617Z,21.00
2019-04-22T13:21:54.572Z,21.10
2019-04-22T13:24:25.987Z,21.50
2019-04-22T13:26:57.060Z,22.20
2019-04-22T13:29:27.582Z,22.00
2019-04-22T13:31:58.585Z,22.40
2019-04-22T13:34:34.737Z,22.00
2019-04-22T13:37:01.286Z,21.60
2019-04-22T13:39:31.426Z,21.30
2019-04-22T13:42:05.958Z,21.30
2019-04-22T13:44:35.363Z,20.30
2019-04-22T13:47:20.728Z,21.60
2019-04-22T13:50:14.771Z,21.60
2019-04-22T13:54:06.515Z,21.50
2019-04-22T13:55:13.648Z,21.10
2019-04-22T13:57:34.355Z,20.90
2019-04-22T13:59:58.792Z,21.30
2019-04-22T14:02:39.932Z,21.80
2019-04-22T14:05:13.065Z,21.50
2019-04-22T14:07:43.192Z,21.80
2019-04-22T14:10:14.281Z,21.80
2019-04-22T14:12:44.666Z,22.00
2019-04-22T14:15:15.914Z,22.40
2019-04-22T14:17:47.121Z,22.20
2019-04-22T14:20:18.932Z,22.10
2019-04-22T14:22:48.742Z,21.90
2019-04-22T14:25:18.909Z,22.10
2019-04-22T14:27:56.782Z,22.10
2019-04-22T14:30:21.217Z,22.70
2019-04-22T14:32:51.278Z,22.50
2019-04-22T14:35:22.886Z,22.40
2019-04-22T14:37:54.476Z,22.60
2019-04-22T14:40:28.028Z,22.20
2019-04-22T14:43:23.111Z,22.40
2019-04-22T14:46:04.598Z,22.20
2019-04-22T14:48:31.632Z,22.30
2019-04-22T14:50:51.884Z,22.60
2019-04-22T14:53:21.413Z,22.80
2019-04-22T14:55:36.728Z,22.50
2019-04-22T14:58:06.835Z,22.70
2019-04-22T15:00:38.045Z,22.80
2019-04-22T15:03:08.367Z,22.60
2019-04-22T15:05:39.929Z,22.70
2019-04-22T15:08:10.999Z,22.80
2019-04-22T15:10:42.030Z,22.50
2019-04-22T15:13:13.340Z,22.60
2019-04-22T15:15:51.196Z,22.40
2019-04-22T15:18:26.044Z,22.60
2019-04-22T15:20:58.578Z,22.60
2019-04-22T15:23:28.685Z,22.80
2019-04-22T15:25:59.165Z,23.00
2019-04-22T15:28:29.331Z,22.30
2019-04-22T15:30:59.523Z,22.50
2019-04-22T15:33:29.673Z,22.50
2019-04-22T15:35:59.572Z,22.60
2019-04-22T15:38:30.236Z,22.80
2019-04-22T15:41:00.961Z,22.60
2019-04-22T15:43:35.079Z,22.70
2019-04-22T15:46:04.064Z,22.90
2019-04-22T15:48:36.066Z,22.80
2019-04-22T15:51:06.851Z,23.10
2019-04-22T15:53:37.985Z,23.00
2019-04-22T15:56:08.545Z,22.90
2019-04-22T15:58:39.645Z,23.00
2019-04-22T16:01:17.811Z,22.90
2019-04-22T16:03:42.708Z,23.00
2019-04-22T16:06:13.265Z,23.00
2019-04-22T16:08:43.905Z,23.10
2019-04-22T16:11:14.084Z,22.90
2019-04-22T16:13:44.321Z,22.80
2019-04-22T16:16:14.646Z,22.80
2019-04-22T16:18:46.497Z,22.90
2019-04-22T16:21:26.730Z,22.80
2019-04-22T16:23:50.140Z,22.50
2019-04-22T16:26:40.315Z,22.70
2019-04-22T16:29:13.396Z,22.80
2019-04-22T16:31:43.461Z,22.80
2019-04-22T16:34:13.654Z,22.70
2019-04-22T16:36:44.788Z,22.70
2019-04-22T16:39:15.378Z,22.80
2019-04-22T16:41:46.579Z,22.70
2019-04-22T16:44:16.605Z,22.90
2019-04-22T16:46:47.764Z,23.10
2019-04-22T16:49:19.308Z,23.00
2019-04-22T16:51:50.050Z,23.10
2019-04-22T16:54:22.131Z,22.90
2019-04-22T16:56:52.334Z,22.90
2019-04-22T16:59:22.909Z,22.80
2019-04-22T17:01:54.553Z,22.80
2019-04-22T17:04:30.450Z,22.80
2019-04-22T17:07:01.655Z,22.90
2019-04-22T17:09:32.123Z,23.10
2019-04-22T17:12:03.581Z,23.40
2019-04-22T17:14:41.314Z,23.40
2019-04-22T17:17:06.546Z,23.40
2019-04-22T17:19:37.406Z,23.40
2019-04-22T17:22:07.962Z,23.40
2019-04-22T17:24:39.502Z,23.40
2019-04-22T17:27:10.649Z,23.40
2019-04-22T17:29:41.060Z,23.50
2019-04-22T17:32:14.067Z,23.60
2019-04-22T17:34:43.538Z,23.60
2019-04-22T17:37:19.291Z,23.60
2019-04-22T17:40:02.366Z,23.60
2019-04-22T17:42:39.942Z,23.50
2019-04-22T17:45:22.101Z,23.30
2019-04-22T17:48:09.347Z,23.50
2019-04-22T17:50:48.562Z,23.50
2019-04-22T17:53:21.527Z,23.50
2019-04-22T17:55:49.269Z,23.60
2019-04-22T17:58:20.841Z,23.60
2019-04-22T18:00:47.574Z,23.70
2019-04-22T18:03:14.221Z,23.80
2019-04-22T18:05:40.956Z,23.80
2019-04-22T18:08:25.186Z,23.90
2019-04-22T18:10:54.234Z,23.90
2019-04-22T18:13:36.296Z,23.80
2019-04-22T18:16:02.032Z,23.70
2019-04-22T18:18:30.156Z,23.80
2019-04-22T18:21:00.317Z,23.90
2019-04-22T18:23:20.726Z,24.00
2019-04-22T18:26:05.669Z,24.00
2019-04-22T18:28:39.583Z,24.60
2019-04-22T18:31:02.949Z,24.10
2019-04-22T18:33:41.349Z,24.00
2019-04-22T18:36:09.990Z,24.10
2019-04-22T18:39:04.249Z,24.00
2019-04-22T18:41:12.490Z,24.00
2019-04-22T18:43:47.841Z,24.10
2019-04-22T18:46:21.341Z,23.90
2019-04-22T18:48:54.061Z,24.00
2019-04-22T18:51:29.421Z,23.90
2019-04-22T18:54:00.442Z,23.90
2019-04-22T18:56:37.654Z,24.00
2019-04-22T18:58:53.759Z,24.10
2019-04-22T19:01:15.655Z,24.30
2019-04-22T19:03:57.514Z,24.50
2019-04-22T19:06:49.046Z,24.70
2019-04-22T19:09:17.168Z,25.00
2019-04-22T19:11:55.649Z,25.30
2019-04-22T19:14:35.063Z,25.70
2019-04-22T19:16:45.607Z,25.90
2019-04-22T19:19:30.423Z,26.10
2019-04-22T19:21:49.494Z,26.20
2019-04-22T19:24:14.974Z,26.30
2019-04-22T19:29:25.616Z,26.90
2019-04-22T19:31:57.350Z,26.90
2019-04-22T19:34:25.295Z,27.30
2019-04-22T19:37:05.536Z,27.60
2019-04-22T19:39:28.730Z,27.80
2019-04-22T19:42:12.442Z,28.00
2019-04-22T19:44:39.481Z,28.20
2019-04-22T19:49:45.432Z,28.80
2019-04-22T19:54:43.994Z,29.10
2019-04-22T19:57:14.616Z,29.60
2019-04-22T19:59:46.499Z,29.70
2019-04-22T20:02:24.750Z,29.90
2019-04-22T20:05:11.128Z,30.00
2019-04-22T20:07:38.124Z,30.30
2019-04-22T20:10:17.235Z,30.50
2019-04-22T20:12:42.780Z,30.90
2019-04-22T20:15:14.184Z,31.30
2019-04-22T20:18:19.226Z,31.50
2019-04-22T20:20:27.230Z,31.70
2019-04-22T20:22:52.463Z,31.90
2019-04-22T20:25:15.334Z,32.00
2019-04-22T20:28:01.293Z,32.40
2019-04-22T20:30:34.547Z,32.50
2019-04-22T20:32:59.224Z,32.50
2019-04-22T20:35:41.849Z,33.30
2019-04-22T20:38:08.748Z,33.40
2019-04-22T20:40:41.437Z,33.60
2019-04-22T20:43:17.613Z,33.90
2019-04-22T20:45:46.646Z,33.90
2019-04-22T20:48:06.045Z,33.90
2019-04-22T20:50:47.938Z,34.60
2019-04-22T20:53:25.399Z,34.70
2019-04-22T20:55:57.077Z,34.60
2019-04-22T20:58:21.306Z,34.70
2019-04-22T21:00:46.462Z,34.80
2019-04-22T21:03:18.015Z,35.40
2019-04-22T21:05:48.227Z,35.20
2019-04-22T21:08:33.843Z,35.20
2019-04-22T21:10:53.448Z,35.30
2019-04-22T21:13:28.048Z,35.50
2019-04-22T21:16:12.258Z,35.60
2019-04-22T21:18:32.159Z,35.90
2019-04-22T21:21:07.116Z,35.90
2019-04-22T21:23:33.915Z,35.70
2019-04-22T21:26:14.621Z,36.10
2019-04-22T21:28:44.326Z,36.40
2019-04-22T21:31:19.264Z,36.30
2019-04-22T21:33:48.798Z,36.60
2019-04-22T21:36:24.985Z,36.50
2019-04-22T21:38:48.478Z,36.50
2019-04-22T21:41:23.046Z,36.60
2019-04-22T21:43:54.782Z,36.60
2019-04-22T21:46:23.903Z,36.70
2019-04-22T21:49:00.217Z,36.70
2019-04-22T21:51:31.185Z,36.70
2019-04-22T21:54:05.099Z,36.60
2019-04-22T21:59:18.450Z,36.70
2019-04-22T22:01:55.496Z,37.10
2019-04-22T22:04:21.997Z,37.70
2019-04-22T22:06:41.243Z,37.30
2019-04-22T22:09:31.140Z,37.30
2019-04-22T22:11:57.475Z,37.40
2019-04-22T22:14:31.683Z,37.70
2019-04-22T22:17:00.175Z,37.90
2019-04-22T22:19:39.702Z,38.00
2019-04-22T22:22:15.228Z,38.20
2019-04-22T22:24:46.440Z,38.20
2019-04-22T22:27:25.052Z,38.20
2019-04-22T22:30:15.969Z,38.60
2019-04-22T22:32:29.686Z,38.70
2019-04-22T22:35:03.014Z,38.90
2019-04-22T22:37:21.914Z,39.00
2019-04-22T22:39:51.413Z,39.00
2019-04-22T22:42:22.446Z,39.30
2019-04-22T22:44:52.632Z,39.20
2019-04-22T22:47:38.302Z,39.30
2019-04-22T22:50:12.552Z,39.20
2019-04-22T22:55:10.921Z,39.70
2019-04-22T22:57:44.436Z,39.50
2019-04-22T23:00:18.440Z,39.50
2019-04-22T23:03:00.770Z,39.70
2019-04-22T23:05:27.145Z,39.70
2019-04-22T23:07:57.172Z,40.10
2019-04-22T23:10:24.869Z,40.00
2019-04-22T23:15:35.892Z,40.00
2019-04-22T23:17:49.887Z,40.10
2019-04-22T23:20:28.971Z,40.20
2019-04-22T23:23:13.785Z,40.50
2019-04-22T23:25:48.148Z,40.50
2019-04-22T23:28:19.263Z,40.40
2019-04-22T23:30:59.448Z,40.70
2019-04-22T23:33:58.638Z,40.80
2019-04-22T23:36:37.918Z,40.90
2019-04-22T23:39:15.707Z,41.20
2019-04-22T23:41:51.073Z,41.50
2019-04-22T23:44:26.948Z,41.90
2019-04-22T23:46:56.845Z,41.80
2019-04-22T23:49:26.677Z,42.00
2019-04-22T23:52:19.259Z,42.10
2019-04-22T23:54:40.920Z,42.10
2019-04-22T23:57:02.044Z,42.40
